sensor_id;sensor_type;location;lat;lon;timestamp;pressure;altitude;pressure_sealevel;temperature;humidity
21838;BME280;11081;45.946;6.140;2024-01-16T00:01:32;94493.75;;;3.97;100.00
21838;BME280;11081;45.946;6.140;2024-01-16T00:04:01;94494.75;;;3.96;100.00
21838;BME280;11081;45.946;6.140;2024-01-16T00:06:29;94492.16;;;3.96;100.00
21838;BME280;11081;45.946;6.140;2024-01-16T00:08:57;94489.94;;;3.93;100.00
21838;BME280;11081;45.946;6.140;2024-01-16T00:11:26;94490.34;;;3.90;100.00
21838;BME280;11081;45.946;6.140;2024-01-16T00:13:54;94485.97;;;3.84;100.00
21838;BME280;11081;45.946;6.140;2024-01-16T00:16:22;94489.53;;;3.83;100.00
21838;BME280;11081;45.946;6.140;2024-01-16T00:18:50;94493.09;;;3.82;100.00
21838;BME280;11081;45.946;6.140;2024-01-16T00:21:18;94486.34;;;3.81;100.00
21838;BME280;11081;45.946;6.140;2024-01-16T00:23:46;94481.19;;;3.81;100.00
21838;BME280;11081;45.946;6.140;2024-01-16T00:26:20;94486.34;;;3.81;100.00
21838;BME280;11081;45.946;6.140;2024-01-16T00:28:50;94475.44;;;3.79;100.00
21838;BME280;11081;45.946;6.140;2024-01-16T00:31:19;94470.47;;;3.77;100.00
21838;BME280;11081;45.946;6.140;2024-01-16T00:33:46;94474.84;;;3.77;100.00
21838;BME280;11081;45.946;6.140;2024-01-16T00:36:15;94476.44;;;3.78;100.00
21838;BME280;11081;45.946;6.140;2024-01-16T00:38:42;94471.88;;;3.80;100.00
21838;BME280;11081;45.946;6.140;2024-01-16T00:41:12;94464.69;;;3.68;100.00
21838;BME280;11081;45.946;6.140;2024-01-16T00:43:41;94466.66;;;3.66;100.00
21838;BME280;11081;45.946;6.140;2024-01-16T00:46:11;94470.84;;;3.67;100.00
21838;BME280;11081;45.946;6.140;2024-01-16T00:48:39;94467.25;;;3.68;100.00
21838;BME280;11081;45.946;6.140;2024-01-16T00:51:07;94466.66;;;3.66;100.00
21838;BME280;11081;45.946;6.140;2024-01-16T00:53:40;94468.44;;;3.59;100.00
21838;BME280;11081;45.946;6.140;2024-01-16T00:56:08;94458.53;;;3.63;100.00
21838;BME280;11081;45.946;6.140;2024-01-16T00:58:36;94466.06;;;3.64;100.00
21838;BME280;11081;45.946;6.140;2024-01-16T01:01:04;94469.84;;;3.68;100.00
21838;BME280;11081;45.946;6.140;2024-01-16T01:03:34;94460.50;;;3.67;100.00
21838;BME280;11081;45.946;6.140;2024-01-16T01:06:02;94467.47;;;3.67;100.00
21838;BME280;11081;45.946;6.140;2024-01-16T01:08:30;94464.47;;;3.63;100.00
21838;BME280;11081;45.946;6.140;2024-01-16T01:10:58;94458.88;;;3.47;100.00
21838;BME280;11081;45.946;6.140;2024-01-16T01:13:26;94469.59;;;3.50;100.00
21838;BME280;11081;45.946;6.140;2024-01-16T01:15:54;94467.25;;;3.55;100.00
21838;BME280;11081;45.946;6.140;2024-01-16T01:18:22;94463.28;;;3.59;100.00
21838;BME280;11081;45.946;6.140;2024-01-16T01:20:52;94463.28;;;3.59;100.00
21838;BME280;11081;45.946;6.140;2024-01-16T01:23:20;94473.22;;;3.62;100.00
21838;BME280;11081;45.946;6.140;2024-01-16T01:25:48;94466.44;;;3.55;100.00
21838;BME280;11081;45.946;6.140;2024-01-16T01:28:16;94476.31;;;3.38;100.00
21838;BME280;11081;45.946;6.140;2024-01-16T01:30:43;94477.03;;;3.19;100.00
21838;BME280;11081;45.946;6.140;2024-01-16T01:33:11;94478.16;;;3.10;100.00
21838;BME280;11081;45.946;6.140;2024-01-16T01:35:40;94476.03;;;3.20;100.00
21838;BME280;11081;45.946;6.140;2024-01-16T01:38:09;94479.47;;;3.33;100.00
21838;BME280;11081;45.946;6.140;2024-01-16T01:40:37;94480.31;;;3.47;100.00
21838;BME280;11081;45.946;6.140;2024-01-16T01:43:20;94487.63;;;3.44;100.00
21838;BME280;11081;45.946;6.140;2024-01-16T01:46:00;94493.75;;;3.36;100.00
21838;BME280;11081;45.946;6.140;2024-01-16T01:48:33;94497.31;;;3.35;100.00
21838;BME280;11081;45.946;6.140;2024-01-16T01:51:01;94487.81;;;3.42;100.00
21838;BME280;11081;45.946;6.140;2024-01-16T01:53:32;94490.63;;;3.47;100.00
21838;BME280;11081;45.946;6.140;2024-01-16T01:56:03;94493.41;;;3.52;100.00
21838;BME280;11081;45.946;6.140;2024-01-16T01:58:33;94479.16;;;3.56;100.00
21838;BME280;11081;45.946;6.140;2024-01-16T02:01:02;94480.34;;;3.60;100.00
21838;BME280;11081;45.946;6.140;2024-01-16T02:03:34;94480.75;;;3.57;100.00
21838;BME280;11081;45.946;6.140;2024-01-16T02:06:03;94477.56;;;3.55;100.00
21838;BME280;11081;45.946;6.140;2024-01-16T02:08:32;94469.19;;;3.53;100.00
21838;BME280;11081;45.946;6.140;2024-01-16T02:11:00;94470.44;;;3.57;100.00
21838;BME280;11081;45.946;6.140;2024-01-16T02:13:28;94473.56;;;3.46;100.00
21838;BME280;11081;45.946;6.140;2024-01-16T02:15:56;94479.03;;;3.30;100.00
21838;BME280;11081;45.946;6.140;2024-01-16T02:18:24;94480.19;;;3.21;100.00
21838;BME280;11081;45.946;6.140;2024-01-16T02:20:57;94491.34;;;3.28;100.00
21838;BME280;11081;45.946;6.140;2024-01-16T02:23:29;94493.53;;;3.31;100.00
21838;BME280;11081;45.946;6.140;2024-01-16T02:25:57;94493.38;;;3.39;100.00
21838;BME280;11081;45.946;6.140;2024-01-16T02:28:25;94502.69;;;3.40;100.00
21838;BME280;11081;45.946;6.140;2024-01-16T02:30:53;94500.09;;;3.33;100.00
21838;BME280;11081;45.946;6.140;2024-01-16T02:33:21;94504.63;;;3.31;100.00
21838;BME280;11081;45.946;6.140;2024-01-16T02:35:50;94509.19;;;3.29;100.00
21838;BME280;11081;45.946;6.140;2024-01-16T02:38:18;94517.72;;;3.30;100.00
21838;BME280;11081;45.946;6.140;2024-01-16T02:40:47;94509.59;;;3.33;100.00
21838;BME280;11081;45.946;6.140;2024-01-16T02:43:15;94506.88;;;3.41;100.00
21838;BME280;11081;45.946;6.140;2024-01-16T02:45:43;94504.09;;;3.49;100.00
21838;BME280;11081;45.946;6.140;2024-01-16T02:48:11;94511.25;;;3.47;100.00
21838;BME280;11081;45.946;6.140;2024-01-16T02:50:39;94500.53;;;3.50;100.00
21838;BME280;11081;45.946;6.140;2024-01-16T02:53:07;94493.78;;;3.49;100.00
21838;BME280;11081;45.946;6.140;2024-01-16T02:55:35;94490.63;;;3.47;100.00
21838;BME280;11081;45.946;6.140;2024-01-16T02:58:04;94486.66;;;3.51;100.00
21838;BME280;11081;45.946;6.140;2024-01-16T03:00:32;94501.78;;;3.54;99.83
21838;BME280;11081;45.946;6.140;2024-01-16T03:03:00;94498.56;;;3.52;100.00
21838;BME280;11081;45.946;6.140;2024-01-16T03:05:28;94500.94;;;3.54;100.00
21838;BME280;11081;45.946;6.140;2024-01-16T03:07:56;94493.00;;;3.49;98.36
21838;BME280;11081;45.946;6.140;2024-01-16T03:10:24;94495.75;;;3.41;98.10
21838;BME280;11081;45.946;6.140;2024-01-16T03:12:52;94495.16;;;3.45;98.35
21838;BME280;11081;45.946;6.140;2024-01-16T03:15:21;94490.22;;;3.50;98.60
21838;BME280;11081;45.946;6.140;2024-01-16T03:17:49;94482.09;;;3.47;97.93
21838;BME280;11081;45.946;6.140;2024-01-16T03:20:18;94478.09;;;3.44;98.14
21838;BME280;11081;45.946;6.140;2024-01-16T03:22:46;94470.75;;;3.41;97.98
21838;BME280;11081;45.946;6.140;2024-01-16T03:25:14;94472.34;;;3.42;98.22
21838;BME280;11081;45.946;6.140;2024-01-16T03:27:41;94468.41;;;3.46;98.70
21838;BME280;11081;45.946;6.140;2024-01-16T03:30:11;94469.97;;;3.47;98.92
21838;BME280;11081;45.946;6.140;2024-01-16T03:32:40;94466.41;;;3.48;98.96
21838;BME280;11081;45.946;6.140;2024-01-16T03:35:09;94473.16;;;3.49;99.75
21838;BME280;11081;45.946;6.140;2024-01-16T03:37:38;94466.81;;;3.52;99.81
21838;BME280;11081;45.946;6.140;2024-01-16T03:40:06;94461.25;;;3.48;100.00
21838;BME280;11081;45.946;6.140;2024-01-16T03:42:35;94456.09;;;3.48;99.95
21838;BME280;11081;45.946;6.140;2024-01-16T03:45:03;94458.28;;;3.51;99.81
21838;BME280;11081;45.946;6.140;2024-01-16T03:47:33;94450.19;;;3.54;99.88
21838;BME280;11081;45.946;6.140;2024-01-16T03:50:03;94439.25;;;3.52;98.84
21838;BME280;11081;45.946;6.140;2024-01-16T03:52:31;94435.06;;;3.51;99.72
21838;BME280;11081;45.946;6.140;2024-01-16T03:54:59;94442.81;;;3.51;99.89
21838;BME280;11081;45.946;6.140;2024-01-16T03:57:27;94437.84;;;3.50;99.80
21838;BME280;11081;45.946;6.140;2024-01-16T03:59:54;94441.47;;;3.55;99.57
21838;BME280;11081;45.946;6.140;2024-01-16T04:02:22;94450.53;;;3.51;99.48
21838;BME280;11081;45.946;6.140;2024-01-16T04:04:50;94439.03;;;3.47;98.62
21838;BME280;11081;45.946;6.140;2024-01-16T04:07:22;94439.00;;;3.34;98.92
21838;BME280;11081;45.946;6.140;2024-01-16T04:09:50;94443.38;;;3.33;99.27
21838;BME280;11081;45.946;6.140;2024-01-16T04:12:18;94440.59;;;3.35;99.05
21838;BME280;11081;45.946;6.140;2024-01-16T04:14:46;94435.22;;;3.30;98.98
21838;BME280;11081;45.946;6.140;2024-01-16T04:17:14;94443.34;;;3.27;98.92
21838;BME280;11081;45.946;6.140;2024-01-16T04:19:42;94433.41;;;3.24;98.53
21838;BME280;11081;45.946;6.140;2024-01-16T04:22:10;94429.78;;;3.12;97.83
21838;BME280;11081;45.946;6.140;2024-01-16T04:24:39;94425.41;;;3.05;98.17
21838;BME280;11081;45.946;6.140;2024-01-16T04:27:07;94426.78;;;3.01;97.97
21838;BME280;11081;45.946;6.140;2024-01-16T04:29:36;94428.19;;;3.04;97.62
21838;BME280;11081;45.946;6.140;2024-01-16T04:32:04;94418.25;;;2.94;97.23
21838;BME280;11081;45.946;6.140;2024-01-16T04:34:32;94409.91;;;2.92;97.23
21838;BME280;11081;45.946;6.140;2024-01-16T04:37:01;94416.25;;;2.96;97.44
21838;BME280;11081;45.946;6.140;2024-01-16T04:39:30;94414.69;;;2.95;97.08
21838;BME280;11081;45.946;6.140;2024-01-16T04:41:59;94414.28;;;2.98;97.21
21838;BME280;11081;45.946;6.140;2024-01-16T04:44:27;94416.66;;;2.93;97.38
21838;BME280;11081;45.946;6.140;2024-01-16T04:46:55;94414.28;;;2.98;97.16
21838;BME280;11081;45.946;6.140;2024-01-16T04:49:23;94406.69;;;2.90;96.80
21838;BME280;11081;45.946;6.140;2024-01-16T04:51:51;94404.91;;;2.84;97.09
21838;BME280;11081;45.946;6.140;2024-01-16T04:54:19;94402.31;;;2.84;97.23
21838;BME280;11081;45.946;6.140;2024-01-16T04:56:46;94392.41;;;2.81;96.88
21838;BME280;11081;45.946;6.140;2024-01-16T04:59:16;94394.38;;;2.79;96.56
21838;BME280;11081;45.946;6.140;2024-01-16T05:01:44;94395.56;;;2.77;96.65
21838;BME280;11081;45.946;6.140;2024-01-16T05:04:12;94396.34;;;2.77;97.23
21838;BME280;11081;45.946;6.140;2024-01-16T05:06:40;94393.19;;;2.82;96.77
21838;BME280;11081;45.946;6.140;2024-01-16T05:09:08;94391.59;;;2.74;95.76
21838;BME280;11081;45.946;6.140;2024-01-16T05:11:37;94390.56;;;2.68;95.76
21838;BME280;11081;45.946;6.140;2024-01-16T05:14:05;94393.91;;;2.69;96.17
21838;BME280;11081;45.946;6.140;2024-01-16T05:16:35;94390.00;;;2.73;95.87
21838;BME280;11081;45.946;6.140;2024-01-16T05:19:03;94384.00;;;2.66;96.44
21838;BME280;11081;45.946;6.140;2024-01-16T05:21:31;94387.56;;;2.65;96.58
21838;BME280;11081;45.946;6.140;2024-01-16T05:23:59;94392.72;;;2.65;96.67
21838;BME280;11081;45.946;6.140;2024-01-16T05:26:27;94384.78;;;2.60;95.91
21838;BME280;11081;45.946;6.140;2024-01-16T05:28:55;94376.75;;;2.41;95.80
21838;BME280;11081;45.946;6.140;2024-01-16T05:31:23;94370.91;;;2.26;97.32
21838;BME280;11081;45.946;6.140;2024-01-16T05:33:52;94376.34;;;2.38;96.55
21838;BME280;11081;45.946;6.140;2024-01-16T05:36:20;94379.09;;;2.36;96.74
21838;BME280;11081;45.946;6.140;2024-01-16T05:38:48;94387.44;;;2.38;97.32
21838;BME280;11081;45.946;6.140;2024-01-16T05:41:17;94386.63;;;2.38;96.89
21838;BME280;11081;45.946;6.140;2024-01-16T05:43:45;94385.91;;;2.16;97.34
21838;BME280;11081;45.946;6.140;2024-01-16T05:46:13;94389.50;;;1.94;99.50
21838;BME280;11081;45.946;6.140;2024-01-16T05:48:41;94387.94;;;1.50;100.00
21838;BME280;11081;45.946;6.140;2024-01-16T05:51:10;94391.34;;;1.36;100.00
21838;BME280;11081;45.946;6.140;2024-01-16T05:53:38;94389.25;;;1.25;100.00
21838;BME280;11081;45.946;6.140;2024-01-16T05:56:06;94401.16;;;1.26;100.00
21838;BME280;11081;45.946;6.140;2024-01-16T05:58:35;94389.41;;;1.38;100.00
21838;BME280;11081;45.946;6.140;2024-01-16T06:01:05;94374.13;;;1.30;100.00
21838;BME280;11081;45.946;6.140;2024-01-16T06:03:33;94373.50;;;1.49;100.00
21838;BME280;11081;45.946;6.140;2024-01-16T06:06:01;94380.59;;;1.68;100.00
21838;BME280;11081;45.946;6.140;2024-01-16T06:08:31;94378.00;;;1.90;100.00
21838;BME280;11081;45.946;6.140;2024-01-16T06:10:59;94376.41;;;1.89;100.00
21838;BME280;11081;45.946;6.140;2024-01-16T06:13:27;94372.72;;;1.98;100.00
21838;BME280;11081;45.946;6.140;2024-01-16T06:15:56;94378.88;;;2.03;100.00
21838;BME280;11081;45.946;6.140;2024-01-16T06:18:24;94394.38;;;2.10;99.26
21838;BME280;11081;45.946;6.140;2024-01-16T06:20:52;94392.41;;;2.12;97.73
21838;BME280;11081;45.946;6.140;2024-01-16T06:23:20;94399.16;;;2.13;98.26
21838;BME280;11081;45.946;6.140;2024-01-16T06:25:50;94399.09;;;2.06;97.72
21838;BME280;11081;45.946;6.140;2024-01-16T06:28:18;94393.75;;;2.08;98.01
21838;BME280;11081;45.946;6.140;2024-01-16T06:30:46;94383.22;;;2.03;97.29
21838;BME280;11081;45.946;6.140;2024-01-16T06:33:14;94385.56;;;1.98;97.82
21838;BME280;11081;45.946;6.140;2024-01-16T06:35:42;94387.16;;;1.99;98.01
21838;BME280;11081;45.946;6.140;2024-01-16T06:38:09;94386.00;;;2.01;96.40
21838;BME280;11081;45.946;6.140;2024-01-16T06:40:37;94380.63;;;1.96;96.74
21838;BME280;11081;45.946;6.140;2024-01-16T06:43:07;94383.22;;;2.03;97.23
21838;BME280;11081;45.946;6.140;2024-01-16T06:45:35;94388.78;;;2.06;96.75
21838;BME280;11081;45.946;6.140;2024-01-16T06:48:04;94401.47;;;2.08;96.88
21838;BME280;11081;45.946;6.140;2024-01-16T06:50:32;94397.94;;;2.09;97.13
21838;BME280;11081;45.946;6.140;2024-01-16T06:53:00;94402.59;;;1.99;96.59
21838;BME280;11081;45.946;6.140;2024-01-16T06:55:28;94402.00;;;1.97;95.95
21838;BME280;11081;45.946;6.140;2024-01-16T06:57:56;94407.84;;;2.12;96.73
21838;BME280;11081;45.946;6.140;2024-01-16T07:00:25;94408.31;;;2.22;96.09
21838;BME280;11081;45.946;6.140;2024-01-16T07:02:53;94407.53;;;2.28;94.83
21838;BME280;11081;45.946;6.140;2024-01-16T07:05:22;94414.91;;;2.31;94.76
21838;BME280;11081;45.946;6.140;2024-01-16T07:07:50;94407.53;;;2.28;94.51
21838;BME280;11081;45.946;6.140;2024-01-16T07:10:18;94396.53;;;2.34;94.15
21838;BME280;11081;45.946;6.140;2024-01-16T07:12:48;94401.28;;;2.37;94.45
21838;BME280;11081;45.946;6.140;2024-01-16T07:15:18;94405.44;;;2.38;94.85
21838;BME280;11081;45.946;6.140;2024-01-16T07:17:47;94408.03;;;2.38;95.16
21838;BME280;11081;45.946;6.140;2024-01-16T07:20:15;94410.81;;;2.43;94.61
21838;BME280;11081;45.946;6.140;2024-01-16T07:22:45;94410.81;;;2.43;94.93
21838;BME280;11081;45.946;6.140;2024-01-16T07:25:13;94412.88;;;2.55;94.39
21838;BME280;11081;45.946;6.140;2024-01-16T07:27:41;94404.97;;;2.56;94.37
21838;BME280;11081;45.946;6.140;2024-01-16T07:30:12;94419.44;;;2.57;95.02
21838;BME280;11081;45.946;6.140;2024-01-16T07:32:40;94422.19;;;2.56;95.95
21838;BME280;11081;45.946;6.140;2024-01-16T07:35:10;94417.28;;;2.61;96.62
21838;BME280;11081;45.946;6.140;2024-01-16T07:37:37;94409.75;;;2.66;96.63
21838;BME280;11081;45.946;6.140;2024-01-16T07:40:07;94406.59;;;2.70;96.47
21838;BME280;11081;45.946;6.140;2024-01-16T07:42:36;94402.28;;;2.71;96.48
21838;BME280;11081;45.946;6.140;2024-01-16T07:45:04;94405.47;;;2.73;96.72
21838;BME280;11081;45.946;6.140;2024-01-16T07:47:33;94409.03;;;2.72;96.86
21838;BME280;11081;45.946;6.140;2024-01-16T07:50:03;94395.16;;;2.73;96.57
21838;BME280;11081;45.946;6.140;2024-01-16T07:52:35;94412.81;;;2.76;96.22
21838;BME280;11081;45.946;6.140;2024-01-16T07:55:04;94424.81;;;2.69;96.37
21838;BME280;11081;45.946;6.140;2024-01-16T07:57:32;94425.22;;;2.66;96.19
21838;BME280;11081;45.946;6.140;2024-01-16T08:00:00;94432.19;;;2.72;96.23
21838;BME280;11081;45.946;6.140;2024-01-16T08:02:32;94434.41;;;2.75;96.44
21838;BME280;11081;45.946;6.140;2024-01-16T08:05:00;94438.19;;;2.79;96.83
21838;BME280;11081;45.946;6.140;2024-01-16T08:07:28;94439.97;;;2.85;96.73
21838;BME280;11081;45.946;6.140;2024-01-16T08:09:57;94422.56;;;2.87;96.75
21838;BME280;11081;45.946;6.140;2024-01-16T08:12:25;94434.06;;;2.91;96.70
21838;BME280;11081;45.946;6.140;2024-01-16T08:14:53;94425.38;;;2.92;97.13
21838;BME280;11081;45.946;6.140;2024-01-16T08:17:21;94424.97;;;2.95;96.48
21838;BME280;11081;45.946;6.140;2024-01-16T08:19:49;94435.31;;;3.02;96.13
21838;BME280;11081;45.946;6.140;2024-01-16T08:22:17;94435.69;;;2.99;96.04
21838;BME280;11081;45.946;6.140;2024-01-16T08:24:46;94434.44;;;2.88;95.24
21838;BME280;11081;45.946;6.140;2024-01-16T08:27:15;94438.28;;;2.64;95.66
21838;BME280;11081;45.946;6.140;2024-01-16T08:29:43;94434.31;;;2.62;95.56
21838;BME280;11081;45.946;6.140;2024-01-16T08:32:11;94439.63;;;2.54;96.62
21838;BME280;11081;45.946;6.140;2024-01-16T08:34:39;94435.31;;;2.67;97.03
21838;BME280;11081;45.946;6.140;2024-01-16T08:37:07;94439.06;;;2.65;96.52
21838;BME280;11081;45.946;6.140;2024-01-16T08:39:35;94444.69;;;2.75;96.31
21838;BME280;11081;45.946;6.140;2024-01-16T08:42:03;94451.50;;;2.89;96.14
21838;BME280;11081;45.946;6.140;2024-01-16T08:44:32;94453.94;;;2.97;95.34
21838;BME280;11081;45.946;6.140;2024-01-16T08:47:00;94451.38;;;3.04;94.84
21838;BME280;11081;45.946;6.140;2024-01-16T08:49:31;94452.44;;;3.23;94.05
21838;BME280;11081;45.946;6.140;2024-01-16T08:51:59;94452.06;;;3.26;94.01
21838;BME280;11081;45.946;6.140;2024-01-16T08:54:27;94447.28;;;3.23;94.47
21838;BME280;11081;45.946;6.140;2024-01-16T08:56:55;94443.75;;;3.30;94.86
21838;BME280;11081;45.946;6.140;2024-01-16T08:59:23;94435.81;;;3.32;94.79
21838;BME280;11081;45.946;6.140;2024-01-16T09:01:53;94442.34;;;3.28;94.53
21838;BME280;11081;45.946;6.140;2024-01-16T09:04:20;94442.56;;;3.33;95.49
21838;BME280;11081;45.946;6.140;2024-01-16T09:06:49;94441.81;;;3.46;94.89
21838;BME280;11081;45.946;6.140;2024-01-16T09:09:17;94441.00;;;3.45;94.57
21838;BME280;11081;45.946;6.140;2024-01-16T09:11:45;94437.41;;;3.33;95.57
21838;BME280;11081;45.946;6.140;2024-01-16T09:14:14;94431.03;;;3.29;96.23
21838;BME280;11081;45.946;6.140;2024-01-16T09:16:41;94431.03;;;3.29;96.55
21838;BME280;11081;45.946;6.140;2024-01-16T09:19:11;94431.41;;;3.19;97.06
21838;BME280;11081;45.946;6.140;2024-01-16T09:21:39;94439.75;;;3.15;97.69
21838;BME280;11081;45.946;6.140;2024-01-16T09:24:07;94436.50;;;2.99;98.04
21838;BME280;11081;45.946;6.140;2024-01-16T09:26:35;94435.31;;;3.09;97.37
21838;BME280;11081;45.946;6.140;2024-01-16T09:29:04;94436.59;;;3.26;96.24
21838;BME280;11081;45.946;6.140;2024-01-16T09:31:31;94438.63;;;3.37;94.30
21838;BME280;11081;45.946;6.140;2024-01-16T09:33:59;94449.75;;;3.44;94.07
21838;BME280;11081;45.946;6.140;2024-01-16T09:36:32;94446.38;;;3.44;94.13
21838;BME280;11081;45.946;6.140;2024-01-16T09:39:03;94447.75;;;3.46;94.38
21838;BME280;11081;45.946;6.140;2024-01-16T09:41:34;94446.63;;;3.55;94.22
21838;BME280;11081;45.946;6.140;2024-01-16T09:44:02;94458.94;;;3.66;92.35
21838;BME280;11081;45.946;6.140;2024-01-16T09:46:31;94465.72;;;3.81;91.71
21838;BME280;11081;45.946;6.140;2024-01-16T09:49:00;94471.28;;;3.84;92.44
21838;BME280;11081;45.946;6.140;2024-01-16T09:51:29;94486.97;;;3.83;92.19
21838;BME280;11081;45.946;6.140;2024-01-16T09:53:58;94489.53;;;3.83;93.33
21838;BME280;11081;45.946;6.140;2024-01-16T09:56:28;94489.56;;;3.96;92.06
21838;BME280;11081;45.946;6.140;2024-01-16T09:59:03;94491.53;;;3.94;92.80
21838;BME280;11081;45.946;6.140;2024-01-16T10:01:33;94486.78;;;4.04;92.41
21838;BME280;11081;45.946;6.140;2024-01-16T10:04:01;94477.09;;;4.19;91.01
21838;BME280;11081;45.946;6.140;2024-01-16T10:06:30;94475.69;;;4.23;88.61
21838;BME280;11081;45.946;6.140;2024-01-16T10:09:01;94474.28;;;4.14;88.94
21838;BME280;11081;45.946;6.140;2024-01-16T10:11:29;94463.38;;;4.19;88.54
21838;BME280;11081;45.946;6.140;2024-01-16T10:13:58;94452.25;;;4.18;88.68
21838;BME280;11081;45.946;6.140;2024-01-16T10:16:56;94453.25;;;4.17;85.61
21838;BME280;11081;45.946;6.140;2024-01-16T10:19:25;94454.44;;;4.35;86.41
21838;BME280;11081;45.946;6.140;2024-01-16T10:22:11;94441.13;;;4.38;86.93
21838;BME280;11081;45.946;6.140;2024-01-16T10:24:40;94431.59;;;4.38;86.82
21838;BME280;11081;45.946;6.140;2024-01-16T10:27:09;94431.19;;;4.35;85.99
21838;BME280;11081;45.946;6.140;2024-01-16T10:29:37;94426.00;;;4.35;84.74
21838;BME280;11081;45.946;6.140;2024-01-16T10:32:27;94431.78;;;4.23;82.29
21838;BME280;11081;45.946;6.140;2024-01-16T10:35:06;94430.38;;;4.14;83.13
21838;BME280;11081;45.946;6.140;2024-01-16T10:37:42;94423.25;;;4.23;83.19
21838;BME280;11081;45.946;6.140;2024-01-16T10:40:14;94429.22;;;4.43;82.93
21838;BME280;11081;45.946;6.140;2024-01-16T10:42:42;94427.22;;;4.45;82.10
21838;BME280;11081;45.946;6.140;2024-01-16T10:45:16;94441.91;;;4.45;83.49
21838;BME280;11081;45.946;6.140;2024-01-16T10:47:45;94427.59;;;4.49;83.28
21838;BME280;11081;45.946;6.140;2024-01-16T10:50:14;94435.53;;;4.54;82.63
21838;BME280;11081;45.946;6.140;2024-01-16T10:52:46;94425.19;;;4.54;82.80
21838;BME280;11081;45.946;6.140;2024-01-16T10:55:22;94411.88;;;4.57;80.97
21838;BME280;11081;45.946;6.140;2024-01-16T10:57:50;94408.91;;;4.60;81.93
21838;BME280;11081;45.946;6.140;2024-01-16T11:00:20;94398.75;;;4.65;81.78
21838;BME280;11081;45.946;6.140;2024-01-16T11:03:01;94402.94;;;4.66;80.93
21838;BME280;11081;45.946;6.140;2024-01-16T11:05:32;94395.75;;;4.68;81.70
21838;BME280;11081;45.946;6.140;2024-01-16T11:08:01;94404.94;;;4.64;82.61
21838;BME280;11081;45.946;6.140;2024-01-16T11:10:32;94398.16;;;4.56;82.78
21838;BME280;11081;45.946;6.140;2024-01-16T11:13:01;94406.94;;;4.49;83.01
21838;BME280;11081;45.946;6.140;2024-01-16T11:15:31;94404.34;;;4.49;82.35
21838;BME280;11081;45.946;6.140;2024-01-16T11:17:59;94398.19;;;4.50;82.30
21838;BME280;11081;45.946;6.140;2024-01-16T11:20:28;94394.59;;;4.64;81.99
21838;BME280;11081;45.946;6.140;2024-01-16T11:23:17;94397.75;;;4.79;81.30
21838;BME280;11081;45.946;6.140;2024-01-16T11:25:46;94403.47;;;4.88;80.79
21838;BME280;11081;45.946;6.140;2024-01-16T11:28:15;94412.78;;;4.96;80.70
21838;BME280;11081;45.946;6.140;2024-01-16T11:30:43;94411.16;;;5.08;80.29
21838;BME280;11081;45.946;6.140;2024-01-16T11:33:42;94418.75;;;5.03;78.94
21838;BME280;11081;45.946;6.140;2024-01-16T11:39:17;94404.97;;;5.09;77.63
21838;BME280;11081;45.946;6.140;2024-01-16T11:41:54;94406.75;;;5.15;77.86
21838;BME280;11081;45.946;6.140;2024-01-16T11:44:43;94397.97;;;5.16;77.98
21838;BME280;11081;45.946;6.140;2024-01-16T11:47:17;94385.63;;;5.18;77.64
21838;BME280;11081;45.946;6.140;2024-01-16T11:49:46;94378.91;;;5.10;77.25
21838;BME280;11081;45.946;6.140;2024-01-16T11:52:14;94380.13;;;5.08;77.54
21838;BME280;11081;45.946;6.140;2024-01-16T11:54:42;94380.53;;;5.05;79.23
21838;BME280;11081;45.946;6.140;2024-01-16T11:57:30;94372.50;;;5.19;79.29
21838;BME280;11081;45.946;6.140;2024-01-16T12:00:04;94368.91;;;5.27;79.67
21838;BME280;11081;45.946;6.140;2024-01-16T12:02:51;94362.59;;;5.10;79.40
21838;BME280;11081;45.946;6.140;2024-01-16T12:05:20;94358.69;;;5.01;79.81
21838;BME280;11081;45.946;6.140;2024-01-16T12:07:49;94355.81;;;5.15;79.33
21838;BME280;11081;45.946;6.140;2024-01-16T12:10:18;94343.44;;;5.24;78.87
21838;BME280;11081;45.946;6.140;2024-01-16T12:12:48;94346.19;;;5.29;78.47
21838;BME280;11081;45.946;6.140;2024-01-16T12:15:17;94338.59;;;5.34;78.96
21838;BME280;11081;45.946;6.140;2024-01-16T12:17:53;94333.91;;;5.18;79.22
21838;BME280;11081;45.946;6.140;2024-01-16T12:20:22;94337.44;;;5.30;79.63
21838;BME280;11081;45.946;6.140;2024-01-16T12:22:57;94331.84;;;5.33;80.37
21838;BME280;11081;45.946;6.140;2024-01-16T12:25:26;94322.91;;;5.29;79.72
21838;BME280;11081;45.946;6.140;2024-01-16T12:28:15;94319.84;;;5.45;79.36
21838;BME280;11081;45.946;6.140;2024-01-16T12:30:58;94309.56;;;5.64;78.38
21838;BME280;11081;45.946;6.140;2024-01-16T12:33:28;94304.53;;;5.69;79.11
21838;BME280;11081;45.946;6.140;2024-01-16T12:36:02;94287.06;;;5.64;78.58
21838;BME280;11081;45.946;6.140;2024-01-16T12:38:32;94296.19;;;5.67;79.35
21838;BME280;11081;45.946;6.140;2024-01-16T12:41:00;94301.03;;;5.57;80.22
21838;BME280;11081;45.946;6.140;2024-01-16T12:43:32;94302.25;;;5.54;79.27
21838;BME280;11081;45.946;6.140;2024-01-16T12:46:00;94303.84;;;5.55;78.75
21838;BME280;11081;45.946;6.140;2024-01-16T12:48:28;94299.38;;;5.69;78.12
21838;BME280;11081;45.946;6.140;2024-01-16T12:51:00;94293.03;;;5.65;77.35
21838;BME280;11081;45.946;6.140;2024-01-16T12:53:30;94288.38;;;5.48;77.97
21838;BME280;11081;45.946;6.140;2024-01-16T12:55:59;94289.03;;;5.37;78.74
21838;BME280;11081;45.946;6.140;2024-01-16T12:58:33;94284.19;;;5.47;78.80
21838;BME280;11081;45.946;6.140;2024-01-16T13:01:23;94274.00;;;5.53;77.68
21838;BME280;11081;45.946;6.140;2024-01-16T13:03:55;94276.66;;;5.71;78.02
21838;BME280;11081;45.946;6.140;2024-01-16T13:06:23;94268.03;;;5.77;76.78
21838;BME280;11081;45.946;6.140;2024-01-16T13:09:04;94273.47;;;5.69;75.76
21838;BME280;11081;45.946;6.140;2024-01-16T13:11:46;94267.97;;;5.59;76.76
21838;BME280;11081;45.946;6.140;2024-01-16T13:14:16;94258.38;;;5.66;77.22
21838;BME280;11081;45.946;6.140;2024-01-16T13:16:44;94260.63;;;5.80;76.89
21838;BME280;11081;45.946;6.140;2024-01-16T13:19:12;94254.56;;;5.93;76.70
21838;BME280;11081;45.946;6.140;2024-01-16T13:21:40;94258.88;;;5.99;75.52
21838;BME280;11081;45.946;6.140;2024-01-16T13:24:08;94256.47;;;6.04;74.80